Terminal Aerodrome Forecast
Issued by NWS Upton, NY

Home | Current Version | Previous Version | Text Only | Print | Product List | Glossary On
Versions: 1 2 3 4 5 6 7 8 9 10 11 12 13 14 15 16 17 18 19 20 21 22 23 24 25 26 27 28 29 30
000
FTUS41 KOKX 262340
TAFLGA
TAF
KLGA 262340Z 2700/2724 07008KT 3SM -DZ BR SCT009 OVC015
      TEMPO 2700/2702 BKN009 OVC015
     FM270200 07008KT 2SM -DZ BR OVC007
     FM270900 07008KT 1SM -RADZ BR OVC004
     FM271400 16007KT 2SM -RA BR OVC006
     FM271600 18008KT 4SM -RA BR OVC015
     FM271900 21008KT P6SM BKN030
     FM272100 21008KT P6SM BKN050=

USA.gov is the U.S. government's official web portal to all federal, state and local government web resources and services.